sensor_id;sensor_type;location;lat;lon;timestamp;P1;durP1;ratioP1;P2;durP2;ratioP2
6955;SDS011;50345;51.136;16.886;2023-03-20T00:02:10;47.35;;;38.60;;
6955;SDS011;50345;51.136;16.886;2023-03-20T00:04:43;49.30;;;37.20;;
6955;SDS011;50345;51.136;16.886;2023-03-20T00:07:08;47.50;;;37.20;;
6955;SDS011;50345;51.136;16.886;2023-03-20T00:09:36;46.95;;;38.50;;
6955;SDS011;50345;51.136;16.886;2023-03-20T00:12:02;46.63;;;36.70;;
6955;SDS011;50345;51.136;16.886;2023-03-20T00:14:29;51.05;;;39.42;;
6955;SDS011;50345;51.136;16.886;2023-03-20T00:16:55;51.30;;;39.00;;
6955;SDS011;50345;51.136;16.886;2023-03-20T00:19:26;49.87;;;37.97;;
6955;SDS011;50345;51.136;16.886;2023-03-20T00:21:56;49.05;;;37.08;;
6955;SDS011;50345;51.136;16.886;2023-03-20T00:24:22;39.60;;;34.40;;
6955;SDS011;50345;51.136;16.886;2023-03-20T00:26:49;46.88;;;37.47;;
6955;SDS011;50345;51.136;16.886;2023-03-20T00:29:19;44.00;;;36.95;;
6955;SDS011;50345;51.136;16.886;2023-03-20T00:31:50;42.33;;;36.78;;
6955;SDS011;50345;51.136;16.886;2023-03-20T00:34:17;40.67;;;35.00;;
6955;SDS011;50345;51.136;16.886;2023-03-20T00:36:44;43.47;;;33.47;;
6955;SDS011;50345;51.136;16.886;2023-03-20T00:39:10;40.92;;;34.45;;
6955;SDS011;50345;51.136;16.886;2023-03-20T00:44:23;40.85;;;35.85;;
6955;SDS011;50345;51.136;16.886;2023-03-20T00:47:12;40.80;;;34.08;;
6955;SDS011;50345;51.136;16.886;2023-03-20T00:49:45;36.35;;;32.30;;
6955;SDS011;50345;51.136;16.886;2023-03-20T00:52:13;37.60;;;32.00;;
6955;SDS011;50345;51.136;16.886;2023-03-20T00:54:43;35.45;;;31.55;;
6955;SDS011;50345;51.136;16.886;2023-03-20T00:57:28;36.40;;;32.50;;
6955;SDS011;50345;51.136;16.886;2023-03-20T01:00:00;41.13;;;33.88;;
6955;SDS011;50345;51.136;16.886;2023-03-20T01:02:30;35.20;;;30.60;;
6955;SDS011;50345;51.136;16.886;2023-03-20T01:04:56;35.30;;;31.60;;
6955;SDS011;50345;51.136;16.886;2023-03-20T01:07:22;36.53;;;32.47;;
6955;SDS011;50345;51.136;16.886;2023-03-20T01:09:48;38.77;;;31.83;;
6955;SDS011;50345;51.136;16.886;2023-03-20T01:12:14;37.45;;;30.17;;
6955;SDS011;50345;51.136;16.886;2023-03-20T01:14:41;34.92;;;29.92;;
6955;SDS011;50345;51.136;16.886;2023-03-20T01:17:16;38.15;;;29.52;;
6955;SDS011;50345;51.136;16.886;2023-03-20T01:19:43;34.47;;;30.08;;
6955;SDS011;50345;51.136;16.886;2023-03-20T01:22:09;35.23;;;28.43;;
6955;SDS011;50345;51.136;16.886;2023-03-20T01:24:34;33.63;;;30.03;;
6955;SDS011;50345;51.136;16.886;2023-03-20T01:27:00;35.67;;;30.00;;
6955;SDS011;50345;51.136;16.886;2023-03-20T01:29:28;30.88;;;27.65;;
6955;SDS011;50345;51.136;16.886;2023-03-20T01:31:54;32.55;;;27.70;;
6955;SDS011;50345;51.136;16.886;2023-03-20T01:34:20;31.30;;;27.40;;
6955;SDS011;50345;51.136;16.886;2023-03-20T01:36:50;33.00;;;27.50;;
6955;SDS011;50345;51.136;16.886;2023-03-20T01:39:21;29.88;;;25.60;;
6955;SDS011;50345;51.136;16.886;2023-03-20T01:41:55;30.25;;;26.30;;
6955;SDS011;50345;51.136;16.886;2023-03-20T01:44:22;30.70;;;26.50;;
6955;SDS011;50345;51.136;16.886;2023-03-20T01:46:52;31.13;;;26.13;;
6955;SDS011;50345;51.136;16.886;2023-03-20T01:51:43;31.30;;;25.63;;
6955;SDS011;50345;51.136;16.886;2023-03-20T01:54:10;27.60;;;24.92;;
6955;SDS011;50345;51.136;16.886;2023-03-20T01:56:49;31.60;;;26.25;;
6955;SDS011;50345;51.136;16.886;2023-03-20T01:59:30;25.85;;;23.10;;
6955;SDS011;50345;51.136;16.886;2023-03-20T02:02:08;25.98;;;23.30;;
6955;SDS011;50345;51.136;16.886;2023-03-20T02:04:39;27.85;;;23.65;;
6955;SDS011;50345;51.136;16.886;2023-03-20T02:07:07;27.15;;;24.35;;
6955;SDS011;50345;51.136;16.886;2023-03-20T02:09:35;29.10;;;25.20;;
6955;SDS011;50345;51.136;16.886;2023-03-20T02:12:01;28.70;;;25.70;;
6955;SDS011;50345;51.136;16.886;2023-03-20T02:14:28;28.02;;;24.65;;
6955;SDS011;50345;51.136;16.886;2023-03-20T02:16:55;28.23;;;24.88;;
6955;SDS011;50345;51.136;16.886;2023-03-20T02:19:31;26.80;;;24.00;;
6955;SDS011;50345;51.136;16.886;2023-03-20T02:27:42;28.10;;;25.02;;
6955;SDS011;50345;51.136;16.886;2023-03-20T02:30:17;27.75;;;24.38;;
6955;SDS011;50345;51.136;16.886;2023-03-20T02:43:38;32.50;;;26.73;;
6955;SDS011;50345;51.136;16.886;2023-03-20T02:49:10;32.00;;;26.52;;
6955;SDS011;50345;51.136;16.886;2023-03-20T02:54:40;32.97;;;28.38;;
6955;SDS011;50345;51.136;16.886;2023-03-20T02:57:16;31.00;;;27.80;;
6955;SDS011;50345;51.136;16.886;2023-03-20T03:00:05;28.30;;;25.45;;
6955;SDS011;50345;51.136;16.886;2023-03-20T03:02:41;27.98;;;25.10;;
6955;SDS011;50345;51.136;16.886;2023-03-20T03:05:15;30.42;;;26.27;;
6955;SDS011;50345;51.136;16.886;2023-03-20T03:07:45;33.28;;;29.45;;
6955;SDS011;50345;51.136;16.886;2023-03-20T03:10:17;37.58;;;28.08;;
6955;SDS011;50345;51.136;16.886;2023-03-20T03:12:47;33.72;;;26.80;;
6955;SDS011;50345;51.136;16.886;2023-03-20T03:15:18;34.53;;;30.35;;
6955;SDS011;50345;51.136;16.886;2023-03-20T03:17:57;45.75;;;30.70;;
6955;SDS011;50345;51.136;16.886;2023-03-20T03:20:31;29.52;;;26.50;;
6955;SDS011;50345;51.136;16.886;2023-03-20T03:22:58;29.77;;;26.02;;
6955;SDS011;50345;51.136;16.886;2023-03-20T03:25:25;31.67;;;28.43;;
6955;SDS011;50345;51.136;16.886;2023-03-20T03:28:08;34.95;;;29.85;;
6955;SDS011;50345;51.136;16.886;2023-03-20T03:30:36;32.17;;;27.25;;
6955;SDS011;50345;51.136;16.886;2023-03-20T03:33:08;27.60;;;24.70;;
6955;SDS011;50345;51.136;16.886;2023-03-20T03:35:48;30.02;;;23.33;;
6955;SDS011;50345;51.136;16.886;2023-03-20T03:38:29;25.38;;;22.55;;
6955;SDS011;50345;51.136;16.886;2023-03-20T03:46:40;23.80;;;21.30;;
6955;SDS011;50345;51.136;16.886;2023-03-20T03:49:25;23.85;;;21.30;;
6955;SDS011;50345;51.136;16.886;2023-03-20T03:51:58;23.85;;;21.25;;
6955;SDS011;50345;51.136;16.886;2023-03-20T03:54:30;24.33;;;21.80;;
6955;SDS011;50345;51.136;16.886;2023-03-20T03:57:04;24.83;;;19.85;;
6955;SDS011;50345;51.136;16.886;2023-03-20T03:59:34;24.98;;;21.63;;
6955;SDS011;50345;51.136;16.886;2023-03-20T04:02:02;23.25;;;20.83;;
6955;SDS011;50345;51.136;16.886;2023-03-20T04:04:32;23.63;;;21.13;;
6955;SDS011;50345;51.136;16.886;2023-03-20T04:06:59;23.08;;;20.88;;
6955;SDS011;50345;51.136;16.886;2023-03-20T04:09:25;22.77;;;20.43;;
6955;SDS011;50345;51.136;16.886;2023-03-20T04:11:51;24.47;;;20.20;;
6955;SDS011;50345;51.136;16.886;2023-03-20T04:14:17;21.98;;;18.85;;
6955;SDS011;50345;51.136;16.886;2023-03-20T04:16:43;21.67;;;19.35;;
6955;SDS011;50345;51.136;16.886;2023-03-20T04:19:09;21.70;;;17.50;;
6955;SDS011;50345;51.136;16.886;2023-03-20T04:21:34;20.90;;;18.70;;
6955;SDS011;50345;51.136;16.886;2023-03-20T04:24:00;19.00;;;15.70;;
6955;SDS011;50345;51.136;16.886;2023-03-20T04:26:26;24.43;;;19.30;;
6955;SDS011;50345;51.136;16.886;2023-03-20T04:28:51;30.37;;;20.20;;
6955;SDS011;50345;51.136;16.886;2023-03-20T04:31:17;20.07;;;17.97;;
6955;SDS011;50345;51.136;16.886;2023-03-20T04:33:43;21.67;;;19.45;;
6955;SDS011;50345;51.136;16.886;2023-03-20T04:36:09;20.90;;;18.63;;
6955;SDS011;50345;51.136;16.886;2023-03-20T04:38:35;21.37;;;18.23;;
6955;SDS011;50345;51.136;16.886;2023-03-20T04:41:01;18.27;;;16.40;;
6955;SDS011;50345;51.136;16.886;2023-03-20T04:43:27;17.10;;;15.43;;
6955;SDS011;50345;51.136;16.886;2023-03-20T04:45:52;20.70;;;18.60;;
6955;SDS011;50345;51.136;16.886;2023-03-20T04:48:18;17.47;;;15.77;;
6955;SDS011;50345;51.136;16.886;2023-03-20T04:50:43;17.17;;;15.47;;
6955;SDS011;50345;51.136;16.886;2023-03-20T04:53:14;20.30;;;18.20;;
6955;SDS011;50345;51.136;16.886;2023-03-20T04:55:41;19.83;;;16.75;;
6955;SDS011;50345;51.136;16.886;2023-03-20T04:58:07;18.30;;;16.57;;
6955;SDS011;50345;51.136;16.886;2023-03-20T05:00:32;16.80;;;15.20;;
6955;SDS011;50345;51.136;16.886;2023-03-20T05:02:58;19.33;;;17.43;;
6955;SDS011;50345;51.136;16.886;2023-03-20T05:05:24;18.23;;;16.30;;
6955;SDS011;50345;51.136;16.886;2023-03-20T05:07:50;20.90;;;18.80;;
6955;SDS011;50345;51.136;16.886;2023-03-20T05:10:16;18.05;;;16.42;;
6955;SDS011;50345;51.136;16.886;2023-03-20T05:12:42;17.90;;;15.35;;
6955;SDS011;50345;51.136;16.886;2023-03-20T05:15:09;18.35;;;16.45;;
6955;SDS011;50345;51.136;16.886;2023-03-20T05:17:35;18.65;;;16.95;;
6955;SDS011;50345;51.136;16.886;2023-03-20T05:20:00;18.77;;;16.90;;
6955;SDS011;50345;51.136;16.886;2023-03-20T05:22:26;18.30;;;16.47;;
6955;SDS011;50345;51.136;16.886;2023-03-20T05:24:51;19.47;;;17.47;;
6955;SDS011;50345;51.136;16.886;2023-03-20T05:27:17;19.87;;;18.13;;
6955;SDS011;50345;51.136;16.886;2023-03-20T05:29:43;19.10;;;17.37;;
6955;SDS011;50345;51.136;16.886;2023-03-20T05:32:09;17.27;;;15.73;;
6955;SDS011;50345;51.136;16.886;2023-03-20T05:34:36;19.60;;;17.80;;
6955;SDS011;50345;51.136;16.886;2023-03-20T05:37:02;19.07;;;16.90;;
6955;SDS011;50345;51.136;16.886;2023-03-20T05:39:28;19.53;;;17.60;;
6955;SDS011;50345;51.136;16.886;2023-03-20T05:41:53;18.67;;;16.87;;
6955;SDS011;50345;51.136;16.886;2023-03-20T05:44:19;17.53;;;15.83;;
6955;SDS011;50345;51.136;16.886;2023-03-20T05:46:45;19.80;;;17.70;;
6955;SDS011;50345;51.136;16.886;2023-03-20T05:49:10;25.20;;;22.70;;
6955;SDS011;50345;51.136;16.886;2023-03-20T05:51:36;26.60;;;23.70;;
6955;SDS011;50345;51.136;16.886;2023-03-20T05:54:02;21.17;;;19.10;;
6955;SDS011;50345;51.136;16.886;2023-03-20T05:56:28;23.17;;;19.97;;
6955;SDS011;50345;51.136;16.886;2023-03-20T05:58:53;20.63;;;18.53;;
6955;SDS011;50345;51.136;16.886;2023-03-20T06:01:19;18.67;;;16.67;;
6955;SDS011;50345;51.136;16.886;2023-03-20T06:03:47;17.48;;;15.70;;
6955;SDS011;50345;51.136;16.886;2023-03-20T06:06:13;17.60;;;15.90;;
6955;SDS011;50345;51.136;16.886;2023-03-20T06:08:40;16.42;;;14.70;;
6955;SDS011;50345;51.136;16.886;2023-03-20T06:11:06;17.87;;;16.17;;
6955;SDS011;50345;51.136;16.886;2023-03-20T06:13:32;20.60;;;18.42;;
6955;SDS011;50345;51.136;16.886;2023-03-20T06:15:58;24.43;;;19.67;;
6955;SDS011;50345;51.136;16.886;2023-03-20T06:18:24;21.10;;;18.77;;
6955;SDS011;50345;51.136;16.886;2023-03-20T06:20:54;19.95;;;17.90;;
6955;SDS011;50345;51.136;16.886;2023-03-20T06:23:20;20.30;;;17.35;;
6955;SDS011;50345;51.136;16.886;2023-03-20T06:25:46;20.87;;;18.67;;
6955;SDS011;50345;51.136;16.886;2023-03-20T06:28:12;28.83;;;24.87;;
6955;SDS011;50345;51.136;16.886;2023-03-20T06:30:37;33.27;;;29.77;;
6955;SDS011;50345;51.136;16.886;2023-03-20T06:33:05;29.53;;;26.67;;
6955;SDS011;50345;51.136;16.886;2023-03-20T06:35:31;26.58;;;23.05;;
6955;SDS011;50345;51.136;16.886;2023-03-20T06:37:57;26.88;;;21.02;;
6955;SDS011;50345;51.136;16.886;2023-03-20T06:40:23;22.83;;;19.98;;
6955;SDS011;50345;51.136;16.886;2023-03-20T06:42:51;27.50;;;22.10;;
6955;SDS011;50345;51.136;16.886;2023-03-20T06:45:17;27.53;;;21.67;;
6955;SDS011;50345;51.136;16.886;2023-03-20T06:47:42;26.60;;;23.23;;
6955;SDS011;50345;51.136;16.886;2023-03-20T06:50:08;24.23;;;21.57;;
6955;SDS011;50345;51.136;16.886;2023-03-20T06:52:34;25.38;;;22.70;;
6955;SDS011;50345;51.136;16.886;2023-03-20T06:54:59;22.40;;;20.10;;
6955;SDS011;50345;51.136;16.886;2023-03-20T06:57:25;21.13;;;18.93;;
6955;SDS011;50345;51.136;16.886;2023-03-20T06:59:51;21.07;;;18.80;;
6955;SDS011;50345;51.136;16.886;2023-03-20T07:02:17;21.58;;;19.27;;
6955;SDS011;50345;51.136;16.886;2023-03-20T07:04:42;20.33;;;18.33;;
6955;SDS011;50345;51.136;16.886;2023-03-20T07:07:08;19.60;;;17.60;;
6955;SDS011;50345;51.136;16.886;2023-03-20T07:09:34;22.57;;;16.57;;
6955;SDS011;50345;51.136;16.886;2023-03-20T07:12:00;17.60;;;15.90;;
6955;SDS011;50345;51.136;16.886;2023-03-20T07:14:26;20.33;;;18.35;;
6955;SDS011;50345;51.136;16.886;2023-03-20T07:16:52;19.90;;;18.00;;
6955;SDS011;50345;51.136;16.886;2023-03-20T07:19:18;19.80;;;17.85;;
6955;SDS011;50345;51.136;16.886;2023-03-20T07:21:44;19.73;;;17.60;;
6955;SDS011;50345;51.136;16.886;2023-03-20T07:24:09;18.93;;;17.30;;
6955;SDS011;50345;51.136;16.886;2023-03-20T07:26:36;19.92;;;18.08;;
6955;SDS011;50345;51.136;16.886;2023-03-20T07:29:02;21.93;;;19.67;;
6955;SDS011;50345;51.136;16.886;2023-03-20T07:31:27;21.70;;;19.60;;
6955;SDS011;50345;51.136;16.886;2023-03-20T07:33:55;19.40;;;17.30;;
6955;SDS011;50345;51.136;16.886;2023-03-20T07:36:20;20.43;;;18.10;;
6955;SDS011;50345;51.136;16.886;2023-03-20T07:38:46;21.13;;;19.00;;
6955;SDS011;50345;51.136;16.886;2023-03-20T07:41:12;17.77;;;15.97;;
6955;SDS011;50345;51.136;16.886;2023-03-20T07:43:37;20.30;;;18.30;;
6955;SDS011;50345;51.136;16.886;2023-03-20T07:46:04;20.40;;;18.27;;
6955;SDS011;50345;51.136;16.886;2023-03-20T07:48:31;21.73;;;17.90;;
6955;SDS011;50345;51.136;16.886;2023-03-20T07:50:56;21.70;;;18.77;;
6955;SDS011;50345;51.136;16.886;2023-03-20T07:53:22;23.10;;;19.53;;
6955;SDS011;50345;51.136;16.886;2023-03-20T07:55:48;25.27;;;21.97;;
6955;SDS011;50345;51.136;16.886;2023-03-20T07:58:13;30.23;;;26.17;;
6955;SDS011;50345;51.136;16.886;2023-03-20T08:00:39;30.90;;;25.67;;
6955;SDS011;50345;51.136;16.886;2023-03-20T08:03:05;31.83;;;28.35;;
6955;SDS011;50345;51.136;16.886;2023-03-20T08:05:30;38.20;;;27.67;;
6955;SDS011;50345;51.136;16.886;2023-03-20T08:07:57;35.35;;;28.33;;
6955;SDS011;50345;51.136;16.886;2023-03-20T08:10:22;40.00;;;28.47;;
6955;SDS011;50345;51.136;16.886;2023-03-20T08:12:48;33.83;;;25.43;;
6955;SDS011;50345;51.136;16.886;2023-03-20T08:15:13;27.90;;;24.40;;
6955;SDS011;50345;51.136;16.886;2023-03-20T08:17:46;36.83;;;26.27;;
6955;SDS011;50345;51.136;16.886;2023-03-20T08:20:12;28.95;;;24.88;;
6955;SDS011;50345;51.136;16.886;2023-03-20T08:22:39;31.67;;;25.23;;
6955;SDS011;50345;51.136;16.886;2023-03-20T08:25:05;32.78;;;26.88;;
6955;SDS011;50345;51.136;16.886;2023-03-20T08:27:32;30.63;;;27.42;;
6955;SDS011;50345;51.136;16.886;2023-03-20T08:29:58;33.85;;;29.65;;
6955;SDS011;50345;51.136;16.886;2023-03-20T08:32:24;33.87;;;26.83;;
6955;SDS011;50345;51.136;16.886;2023-03-20T08:34:50;38.43;;;32.00;;
6955;SDS011;50345;51.136;16.886;2023-03-20T08:37:16;33.60;;;29.80;;
6955;SDS011;50345;51.136;16.886;2023-03-20T08:39:42;32.70;;;27.50;;
6955;SDS011;50345;51.136;16.886;2023-03-20T08:42:07;35.40;;;28.97;;
6955;SDS011;50345;51.136;16.886;2023-03-20T08:44:33;29.50;;;24.10;;
6955;SDS011;50345;51.136;16.886;2023-03-20T08:46:58;28.57;;;25.87;;
6955;SDS011;50345;51.136;16.886;2023-03-20T08:49:24;26.93;;;24.23;;
6955;SDS011;50345;51.136;16.886;2023-03-20T08:51:49;27.17;;;24.47;;
6955;SDS011;50345;51.136;16.886;2023-03-20T08:54:15;27.90;;;25.17;;
6955;SDS011;50345;51.136;16.886;2023-03-20T08:56:42;26.33;;;22.85;;
6955;SDS011;50345;51.136;16.886;2023-03-20T08:59:09;31.27;;;25.80;;
6955;SDS011;50345;51.136;16.886;2023-03-20T09:01:35;28.23;;;25.53;;
6955;SDS011;50345;51.136;16.886;2023-03-20T09:04:01;26.05;;;23.20;;
6955;SDS011;50345;51.136;16.886;2023-03-20T09:06:27;25.00;;;22.40;;
6955;SDS011;50345;51.136;16.886;2023-03-20T09:08:53;24.47;;;21.87;;
6955;SDS011;50345;51.136;16.886;2023-03-20T09:11:19;21.65;;;19.45;;
6955;SDS011;50345;51.136;16.886;2023-03-20T09:13:45;21.37;;;19.47;;
6955;SDS011;50345;51.136;16.886;2023-03-20T09:16:10;21.90;;;19.60;;
6955;SDS011;50345;51.136;16.886;2023-03-20T09:18:36;20.57;;;18.60;;
6955;SDS011;50345;51.136;16.886;2023-03-20T09:21:01;22.67;;;20.43;;
6955;SDS011;50345;51.136;16.886;2023-03-20T09:23:27;19.25;;;17.27;;
6955;SDS011;50345;51.136;16.886;2023-03-20T09:25:53;18.60;;;17.00;;
6955;SDS011;50345;51.136;16.886;2023-03-20T09:28:19;24.00;;;17.90;;
6955;SDS011;50345;51.136;16.886;2023-03-20T09:30:45;21.97;;;19.83;;
6955;SDS011;50345;51.136;16.886;2023-03-20T09:33:10;18.60;;;16.90;;
6955;SDS011;50345;51.136;16.886;2023-03-20T09:35:38;16.88;;;15.10;;
6955;SDS011;50345;51.136;16.886;2023-03-20T09:38:03;15.80;;;14.30;;
6955;SDS011;50345;51.136;16.886;2023-03-20T09:40:30;15.50;;;14.10;;
6955;SDS011;50345;51.136;16.886;2023-03-20T09:48:56;15.88;;;14.38;;
6955;SDS011;50345;51.136;16.886;2023-03-20T09:51:52;15.38;;;13.77;;
6955;SDS011;50345;51.136;16.886;2023-03-20T09:56:51;13.88;;;12.57;;
6955;SDS011;50345;51.136;16.886;2023-03-20T09:59:18;14.15;;;12.68;;
6955;SDS011;50345;51.136;16.886;2023-03-20T10:04:14;12.75;;;11.55;;
6955;SDS011;50345;51.136;16.886;2023-03-20T10:16:21;13.98;;;12.30;;
6955;SDS011;50345;51.136;16.886;2023-03-20T10:25:02;12.75;;;10.98;;
6955;SDS011;50345;51.136;16.886;2023-03-20T10:27:34;12.05;;;10.77;;
6955;SDS011;50345;51.136;16.886;2023-03-20T10:33:16;10.98;;;9.88;;
6955;SDS011;50345;51.136;16.886;2023-03-20T10:41:31;11.47;;;10.40;;
6955;SDS011;50345;51.136;16.886;2023-03-20T10:44:00;12.77;;;10.47;;
6955;SDS011;50345;51.136;16.886;2023-03-20T10:46:30;10.13;;;9.13;;
6955;SDS011;50345;51.136;16.886;2023-03-20T10:49:00;9.70;;;8.90;;
6955;SDS011;50345;51.136;16.886;2023-03-20T10:51:51;9.60;;;8.70;;
6955;SDS011;50345;51.136;16.886;2023-03-20T10:54:30;9.90;;;9.00;;
6955;SDS011;50345;51.136;16.886;2023-03-20T10:57:03;9.73;;;8.93;;
6955;SDS011;50345;51.136;16.886;2023-03-20T10:59:38;9.23;;;8.53;;
6955;SDS011;50345;51.136;16.886;2023-03-20T11:02:10;7.90;;;7.30;;
6955;SDS011;50345;51.136;16.886;2023-03-20T11:04:37;8.33;;;7.50;;
6955;SDS011;50345;51.136;16.886;2023-03-20T11:07:15;8.60;;;7.80;;
6955;SDS011;50345;51.136;16.886;2023-03-20T11:10:12;10.07;;;9.17;;
6955;SDS011;50345;51.136;16.886;2023-03-20T11:12:39;9.80;;;9.00;;
6955;SDS011;50345;51.136;16.886;2023-03-20T11:15:26;8.33;;;7.53;;
6955;SDS011;50345;51.136;16.886;2023-03-20T11:17:57;8.80;;;8.10;;
6955;SDS011;50345;51.136;16.886;2023-03-20T11:20:23;9.90;;;8.53;;
6955;SDS011;50345;51.136;16.886;2023-03-20T11:22:50;9.83;;;9.00;;
6955;SDS011;50345;51.136;16.886;2023-03-20T11:25:36;11.30;;;10.40;;
6955;SDS011;50345;51.136;16.886;2023-03-20T11:28:20;10.57;;;9.70;;
6955;SDS011;50345;51.136;16.886;2023-03-20T11:33:38;12.17;;;11.27;;
6955;SDS011;50345;51.136;16.886;2023-03-20T11:36:11;11.20;;;10.30;;
6955;SDS011;50345;51.136;16.886;2023-03-20T11:38:48;14.50;;;13.10;;
6955;SDS011;50345;51.136;16.886;2023-03-20T11:41:16;14.07;;;12.93;;
6955;SDS011;50345;51.136;16.886;2023-03-20T11:43:52;13.43;;;12.17;;
6955;SDS011;50345;51.136;16.886;2023-03-20T11:46:19;15.17;;;14.07;;
6955;SDS011;50345;51.136;16.886;2023-03-20T11:48:47;14.70;;;13.50;;
6955;SDS011;50345;51.136;16.886;2023-03-20T11:51:27;15.83;;;14.20;;
6955;SDS011;50345;51.136;16.886;2023-03-20T11:54:04;14.23;;;13.10;;
6955;SDS011;50345;51.136;16.886;2023-03-20T11:56:32;13.57;;;12.50;;
6955;SDS011;50345;51.136;16.886;2023-03-20T11:59:05;13.40;;;12.30;;
6955;SDS011;50345;51.136;16.886;2023-03-20T12:01:43;13.10;;;12.00;;
6955;SDS011;50345;51.136;16.886;2023-03-20T12:06:43;13.37;;;12.30;;
6955;SDS011;50345;51.136;16.886;2023-03-20T12:09:22;11.00;;;10.20;;
6955;SDS011;50345;51.136;16.886;2023-03-20T12:11:58;12.53;;;11.63;;
6955;SDS011;50345;51.136;16.886;2023-03-20T12:19:55;13.90;;;12.80;;
6955;SDS011;50345;51.136;16.886;2023-03-20T12:22:27;12.33;;;11.53;;
6955;SDS011;50345;51.136;16.886;2023-03-20T12:27:48;13.27;;;12.20;;
6955;SDS011;50345;51.136;16.886;2023-03-20T12:33:19;12.17;;;10.97;;
6955;SDS011;50345;51.136;16.886;2023-03-20T12:35:55;13.60;;;12.80;;
6955;SDS011;50345;51.136;16.886;2023-03-20T12:38:26;10.73;;;10.13;;
6955;SDS011;50345;51.136;16.886;2023-03-20T12:40:54;10.00;;;9.10;;
6955;SDS011;50345;51.136;16.886;2023-03-20T12:43:29;11.80;;;10.90;;
6955;SDS011;50345;51.136;16.886;2023-03-20T12:46:09;10.27;;;9.57;;
6955;SDS011;50345;51.136;16.886;2023-03-20T12:49:09;10.33;;;9.63;;
6955;SDS011;50345;51.136;16.886;2023-03-20T12:51:55;10.07;;;9.47;;
6955;SDS011;50345;51.136;16.886;2023-03-20T12:57:16;9.10;;;8.50;;
6955;SDS011;50345;51.136;16.886;2023-03-20T13:02:37;9.27;;;8.77;;
6955;SDS011;50345;51.136;16.886;2023-03-20T13:11:14;4.60;;;4.27;;
6955;SDS011;50345;51.136;16.886;2023-03-20T13:14:03;5.27;;;4.90;;
6955;SDS011;50345;51.136;16.886;2023-03-20T13:16:38;5.77;;;5.07;;
6955;SDS011;50345;51.136;16.886;2023-03-20T13:22:07;4.50;;;3.80;;
6955;SDS011;50345;51.136;16.886;2023-03-20T13:25:22;8.83;;;4.40;;
6955;SDS011;50345;51.136;16.886;2023-03-20T13:28:01;4.60;;;4.20;;
6955;SDS011;50345;51.136;16.886;2023-03-20T13:36:10;5.77;;;5.27;;
6955;SDS011;50345;51.136;16.886;2023-03-20T13:38:58;5.93;;;4.50;;
6955;SDS011;50345;51.136;16.886;2023-03-20T13:41:46;4.40;;;4.10;;
6955;SDS011;50345;51.136;16.886;2023-03-20T13:44:14;5.83;;;4.43;;
6955;SDS011;50345;51.136;16.886;2023-03-20T13:46:48;4.80;;;4.40;;
6955;SDS011;50345;51.136;16.886;2023-03-20T13:49:26;4.70;;;4.30;;
6955;SDS011;50345;51.136;16.886;2023-03-20T14:03:19;10.00;;;9.20;;
6955;SDS011;50345;51.136;16.886;2023-03-20T14:08:56;8.13;;;7.53;;
6955;SDS011;50345;51.136;16.886;2023-03-20T14:13:50;8.43;;;7.73;;
6955;SDS011;50345;51.136;16.886;2023-03-20T14:16:22;9.77;;;8.97;;
6955;SDS011;50345;51.136;16.886;2023-03-20T14:19:02;8.80;;;8.23;;
6955;SDS011;50345;51.136;16.886;2023-03-20T14:21:33;10.37;;;9.67;;
6955;SDS011;50345;51.136;16.886;2023-03-20T14:24:01;9.90;;;9.10;;
6955;SDS011;50345;51.136;16.886;2023-03-20T14:26:30;9.52;;;8.80;;
6955;SDS011;50345;51.136;16.886;2023-03-20T14:29:30;10.18;;;8.35;;
6955;SDS011;50345;51.136;16.886;2023-03-20T14:37:38;8.88;;;8.10;;
6955;SDS011;50345;51.136;16.886;2023-03-20T14:40:31;9.77;;;8.98;;
6955;SDS011;50345;51.136;16.886;2023-03-20T14:43:03;8.95;;;8.25;;
6955;SDS011;50345;51.136;16.886;2023-03-20T14:45:54;8.65;;;7.95;;
6955;SDS011;50345;51.136;16.886;2023-03-20T14:48:31;6.60;;;5.82;;
6955;SDS011;50345;51.136;16.886;2023-03-20T14:51:38;3.67;;;3.40;;
6955;SDS011;50345;51.136;16.886;2023-03-20T14:56:46;2.90;;;2.80;;
6955;SDS011;50345;51.136;16.886;2023-03-20T14:59:13;2.63;;;2.42;;
6955;SDS011;50345;51.136;16.886;2023-03-20T15:06:59;3.47;;;3.20;;
6955;SDS011;50345;51.136;16.886;2023-03-20T15:09:50;2.50;;;2.30;;
6955;SDS011;50345;51.136;16.886;2023-03-20T15:12:22;2.75;;;2.55;;
6955;SDS011;50345;51.136;16.886;2023-03-20T15:15:22;3.47;;;3.13;;
6955;SDS011;50345;51.136;16.886;2023-03-20T15:17:47;3.22;;;2.92;;
6955;SDS011;50345;51.136;16.886;2023-03-20T15:20:15;3.40;;;3.20;;
6955;SDS011;50345;51.136;16.886;2023-03-20T15:25:23;4.18;;;3.78;;
6955;SDS011;50345;51.136;16.886;2023-03-20T15:27:55;3.97;;;3.47;;
6955;SDS011;50345;51.136;16.886;2023-03-20T15:30:21;3.93;;;3.70;;
6955;SDS011;50345;51.136;16.886;2023-03-20T15:32:48;3.90;;;3.47;;
6955;SDS011;50345;51.136;16.886;2023-03-20T15:35:17;4.20;;;3.92;;
6955;SDS011;50345;51.136;16.886;2023-03-20T15:37:46;3.63;;;3.42;;
6955;SDS011;50345;51.136;16.886;2023-03-20T15:40:20;4.70;;;4.30;;
6955;SDS011;50345;51.136;16.886;2023-03-20T15:42:55;4.57;;;4.18;;
6955;SDS011;50345;51.136;16.886;2023-03-20T15:45:26;4.47;;;4.07;;
6955;SDS011;50345;51.136;16.886;2023-03-20T15:48:14;4.97;;;4.38;;
6955;SDS011;50345;51.136;16.886;2023-03-20T15:50:42;4.63;;;4.32;;
6955;SDS011;50345;51.136;16.886;2023-03-20T15:53:15;5.65;;;5.10;;
6955;SDS011;50345;51.136;16.886;2023-03-20T15:56:01;5.50;;;4.53;;
6955;SDS011;50345;51.136;16.886;2023-03-20T15:58:39;5.03;;;4.53;;
6955;SDS011;50345;51.136;16.886;2023-03-20T16:01:06;4.22;;;3.92;;
6955;SDS011;50345;51.136;16.886;2023-03-20T16:03:33;4.50;;;4.10;;
6955;SDS011;50345;51.136;16.886;2023-03-20T16:06:02;4.60;;;4.20;;
6955;SDS011;50345;51.136;16.886;2023-03-20T16:08:33;5.22;;;4.75;;
6955;SDS011;50345;51.136;16.886;2023-03-20T16:11:04;4.35;;;3.95;;
6955;SDS011;50345;51.136;16.886;2023-03-20T16:13:36;6.10;;;4.68;;
6955;SDS011;50345;51.136;16.886;2023-03-20T16:16:05;4.80;;;4.40;;
6955;SDS011;50345;51.136;16.886;2023-03-20T16:18:35;4.60;;;4.15;;
6955;SDS011;50345;51.136;16.886;2023-03-20T16:21:04;4.93;;;4.53;;
6955;SDS011;50345;51.136;16.886;2023-03-20T16:23:38;5.22;;;4.82;;
6955;SDS011;50345;51.136;16.886;2023-03-20T16:26:07;3.83;;;3.55;;
6955;SDS011;50345;51.136;16.886;2023-03-20T16:28:54;5.75;;;5.00;;
6955;SDS011;50345;51.136;16.886;2023-03-20T16:31:28;4.30;;;3.90;;
6955;SDS011;50345;51.136;16.886;2023-03-20T16:33:58;8.23;;;7.47;;
6955;SDS011;50345;51.136;16.886;2023-03-20T16:36:30;6.60;;;6.00;;
6955;SDS011;50345;51.136;16.886;2023-03-20T16:41:37;6.53;;;5.93;;
6955;SDS011;50345;51.136;16.886;2023-03-20T16:44:15;5.32;;;4.93;;
6955;SDS011;50345;51.136;16.886;2023-03-20T16:51:59;7.32;;;6.47;;
6955;SDS011;50345;51.136;16.886;2023-03-20T16:54:29;8.20;;;6.53;;
6955;SDS011;50345;51.136;16.886;2023-03-20T16:56:58;34.08;;;31.13;;
6955;SDS011;50345;51.136;16.886;2023-03-20T16:59:24;11.20;;;10.35;;
6955;SDS011;50345;51.136;16.886;2023-03-20T17:01:51;10.90;;;9.90;;
6955;SDS011;50345;51.136;16.886;2023-03-20T17:07:06;16.77;;;15.52;;
6955;SDS011;50345;51.136;16.886;2023-03-20T17:09:50;9.45;;;8.60;;
6955;SDS011;50345;51.136;16.886;2023-03-20T17:12:17;5.32;;;4.93;;
6955;SDS011;50345;51.136;16.886;2023-03-20T17:14:43;8.23;;;7.63;;
6955;SDS011;50345;51.136;16.886;2023-03-20T17:17:16;7.38;;;6.65;;